createdAt,value
2022-07-30T00:00:50.380Z,22.60
2022-07-30T00:03:20.864Z,22.50
2022-07-30T00:05:54.893Z,22.50
2022-07-30T00:08:25.719Z,22.40
2022-07-30T00:10:56.035Z,22.40
2022-07-30T00:13:26.915Z,22.40
2022-07-30T00:15:57.235Z,22.30
2022-07-30T00:18:27.680Z,22.30
2022-07-30T00:21:00.537Z,22.30
2022-07-30T00:23:32.616Z,22.30
2022-07-30T00:26:03.144Z,22.20
2022-07-30T00:28:33.571Z,22.20
2022-07-30T00:31:04.186Z,22.20
2022-07-30T00:33:34.712Z,22.20
2022-07-30T00:36:08.131Z,22.10
2022-07-30T00:38:38.453Z,22.00
2022-07-30T00:41:08.763Z,22.00
2022-07-30T00:43:39.425Z,22.00
2022-07-30T00:46:09.829Z,22.10
2022-07-30T00:48:40.305Z,22.00
2022-07-30T00:51:13.609Z,22.00
2022-07-30T00:53:44.426Z,22.00
2022-07-30T00:56:14.784Z,21.90
2022-07-30T00:58:45.206Z,21.80
2022-07-30T01:01:15.640Z,21.80
2022-07-30T01:03:46.545Z,21.80
2022-07-30T01:06:19.445Z,21.80
2022-07-30T01:08:49.795Z,21.80
2022-07-30T01:11:20.088Z,21.70
2022-07-30T01:13:50.771Z,21.70
2022-07-30T01:16:21.405Z,21.70
2022-07-30T01:19:05.079Z,21.60
2022-07-30T01:21:42.238Z,21.60
2022-07-30T01:24:22.231Z,21.60
2022-07-30T01:26:56.396Z,21.50
2022-07-30T01:29:28.242Z,21.50
2022-07-30T01:32:00.449Z,21.50
2022-07-30T01:34:34.078Z,21.40
2022-07-30T01:37:08.666Z,21.40
2022-07-30T01:39:40.277Z,21.40
2022-07-30T01:42:14.909Z,21.40
2022-07-30T01:44:46.394Z,21.40
2022-07-30T01:47:19.161Z,21.30
2022-07-30T01:49:51.237Z,21.30
2022-07-30T01:52:22.710Z,21.30
2022-07-30T01:54:55.563Z,21.30
2022-07-30T01:57:29.587Z,21.20
2022-07-30T02:00:04.731Z,21.20
2022-07-30T02:02:46.969Z,21.20
2022-07-30T02:05:18.636Z,21.10
2022-07-30T02:07:56.022Z,21.10
2022-07-30T02:10:35.961Z,21.00
2022-07-30T02:13:11.441Z,21.00
2022-07-30T02:15:48.995Z,21.00
2022-07-30T02:18:23.801Z,21.00
2022-07-30T02:21:07.330Z,20.90
2022-07-30T02:23:43.636Z,21.00
2022-07-30T02:26:18.819Z,20.90
2022-07-30T02:28:55.692Z,20.90
2022-07-30T02:31:30.263Z,20.90
2022-07-30T02:34:03.896Z,20.90
2022-07-30T02:36:35.613Z,20.90
2022-07-30T02:39:08.695Z,20.90
2022-07-30T02:41:45.539Z,20.90
2022-07-30T02:44:23.248Z,20.90
2022-07-30T02:46:55.227Z,20.80
2022-07-30T02:49:51.483Z,20.80
2022-07-30T02:52:22.379Z,20.70
2022-07-30T02:54:55.648Z,20.70
2022-07-30T02:57:26.485Z,20.70
2022-07-30T03:00:00.256Z,20.70
2022-07-30T03:02:31.734Z,20.70
2022-07-30T03:05:04.465Z,20.70
2022-07-30T03:07:38.646Z,20.60
2022-07-30T03:10:10.921Z,20.60
2022-07-30T03:12:43.757Z,20.70
2022-07-30T03:15:17.334Z,20.60
2022-07-30T03:17:51.993Z,20.50
2022-07-30T03:20:24.113Z,20.50
2022-07-30T03:22:56.871Z,20.50
2022-07-30T03:25:29.712Z,20.50
2022-07-30T03:28:02.689Z,20.50
2022-07-30T03:30:37.477Z,20.40
2022-07-30T03:33:09.494Z,20.40
2022-07-30T03:35:42.424Z,20.40
2022-07-30T03:38:15.399Z,20.40
2022-07-30T03:40:46.727Z,20.30
2022-07-30T03:43:32.636Z,20.30
2022-07-30T03:46:09.051Z,20.20
2022-07-30T03:48:45.463Z,20.20
2022-07-30T03:51:16.377Z,20.20
2022-07-30T03:53:51.818Z,20.20
2022-07-30T03:56:34.132Z,20.10
2022-07-30T03:59:17.724Z,20.10
2022-07-30T04:01:51.237Z,20.10
2022-07-30T04:04:45.603Z,20.10
2022-07-30T04:07:16.002Z,20.00
2022-07-30T04:09:49.304Z,20.00
2022-07-30T04:12:54.029Z,20.10
2022-07-30T04:16:38.198Z,20.00
2022-07-30T04:18:21.823Z,19.90
2022-07-30T04:20:53.835Z,19.90
2022-07-30T04:23:25.559Z,19.90
2022-07-30T04:25:56.249Z,19.90
2022-07-30T04:28:26.587Z,19.90
2022-07-30T04:30:57.531Z,19.90
2022-07-30T04:33:30.897Z,19.90
2022-07-30T04:36:16.493Z,19.90
2022-07-30T04:38:46.917Z,19.90
2022-07-30T04:41:17.329Z,19.90
2022-07-30T04:44:10.866Z,19.90
2022-07-30T04:46:49.533Z,19.90
2022-07-30T04:49:25.291Z,19.90
2022-07-30T04:52:00.155Z,19.90
2022-07-30T04:54:39.073Z,19.90
2022-07-30T04:57:10.555Z,19.90
2022-07-30T04:59:41.275Z,19.90
2022-07-30T05:02:13.733Z,19.90
2022-07-30T05:04:47.743Z,19.90
2022-07-30T05:07:22.484Z,19.90
2022-07-30T05:09:53.934Z,19.90
2022-07-30T05:12:24.323Z,19.90
2022-07-30T05:14:54.788Z,19.90
2022-07-30T05:17:25.640Z,19.90
2022-07-30T05:19:58.954Z,19.90
2022-07-30T05:22:34.504Z,19.90
2022-07-30T05:25:04.815Z,19.90
2022-07-30T05:27:46.712Z,19.90
2022-07-30T05:30:17.314Z,19.90
2022-07-30T05:32:51.989Z,19.90
2022-07-30T05:35:26.339Z,20.00
2022-07-30T05:37:57.457Z,20.00
2022-07-30T05:40:28.794Z,20.00
2022-07-30T05:42:59.232Z,20.00
2022-07-30T05:45:31.423Z,20.00
2022-07-30T05:48:05.382Z,20.10
2022-07-30T05:50:38.413Z,20.00
2022-07-30T05:53:09.127Z,20.00
2022-07-30T05:55:59.727Z,20.00
2022-07-30T05:58:48.453Z,20.00
2022-07-30T06:01:23.876Z,20.10
2022-07-30T06:03:55.025Z,20.10
2022-07-30T06:07:00.642Z,20.10
2022-07-30T06:09:36.822Z,20.10
2022-07-30T06:12:09.424Z,20.20
2022-07-30T06:14:39.984Z,20.10
2022-07-30T06:17:13.695Z,20.10
2022-07-30T06:20:03.717Z,20.20
2022-07-30T06:22:43.650Z,20.10
2022-07-30T06:25:23.034Z,20.20
2022-07-30T06:27:54.243Z,20.20
2022-07-30T06:30:30.415Z,20.20
2022-07-30T06:33:02.008Z,20.30
2022-07-30T06:35:34.406Z,20.20
2022-07-30T06:38:08.065Z,20.20
2022-07-30T06:40:51.228Z,20.20
2022-07-30T06:43:28.339Z,20.30
2022-07-30T06:46:24.565Z,20.40
2022-07-30T06:48:56.470Z,20.40
2022-07-30T06:51:27.156Z,20.20
2022-07-30T06:54:00.230Z,20.40
2022-07-30T06:56:39.574Z,20.40
2022-07-30T06:59:11.418Z,20.40
2022-07-30T07:02:00.538Z,20.40
2022-07-30T07:04:32.393Z,20.30
2022-07-30T07:07:12.522Z,20.40
2022-07-30T07:09:49.454Z,20.50
2022-07-30T07:12:38.488Z,20.40
2022-07-30T07:15:11.703Z,20.50
2022-07-30T07:17:42.186Z,20.50
2022-07-30T07:20:46.838Z,20.60
2022-07-30T07:23:19.597Z,20.70
2022-07-30T07:25:54.839Z,20.70
2022-07-30T07:28:29.981Z,20.70
2022-07-30T07:31:05.332Z,20.80
2022-07-30T07:33:35.794Z,20.80
2022-07-30T07:36:07.001Z,20.80
2022-07-30T07:38:38.380Z,20.80
2022-07-30T07:41:11.535Z,20.90
2022-07-30T07:43:42.022Z,20.90
2022-07-30T07:46:16.717Z,20.80
2022-07-30T07:49:05.288Z,21.00
2022-07-30T07:51:48.067Z,21.00
2022-07-30T07:54:23.098Z,21.00
2022-07-30T07:56:59.177Z,21.00
2022-07-30T07:59:41.014Z,21.00
2022-07-30T08:02:23.260Z,20.90
2022-07-30T08:05:10.843Z,21.10
2022-07-30T08:08:02.917Z,21.10
2022-07-30T08:11:02.199Z,21.20
2022-07-30T08:13:58.189Z,21.20
2022-07-30T08:16:47.410Z,21.20
2022-07-30T08:19:52.724Z,21.30
2022-07-30T08:22:25.739Z,21.40
2022-07-30T08:24:57.286Z,21.40
2022-07-30T08:27:30.663Z,21.50
2022-07-30T08:30:06.924Z,21.50
2022-07-30T08:32:37.895Z,21.50
2022-07-30T08:35:10.368Z,21.50
2022-07-30T08:37:42.467Z,21.50
2022-07-30T08:40:15.179Z,21.60
2022-07-30T08:42:56.929Z,21.70
2022-07-30T08:45:34.903Z,21.70
2022-07-30T08:48:38.896Z,21.70
2022-07-30T08:51:09.750Z,21.80
2022-07-30T08:53:59.509Z,21.90
2022-07-30T08:56:30.951Z,21.90
2022-07-30T08:59:02.493Z,21.90
2022-07-30T09:01:35.539Z,21.90
2022-07-30T09:04:06.671Z,22.00
2022-07-30T09:06:37.397Z,22.10
2022-07-30T09:09:11.364Z,22.20
2022-07-30T09:11:44.525Z,22.20
2022-07-30T09:14:17.135Z,22.20
2022-07-30T09:16:50.340Z,22.30
2022-07-30T09:19:23.412Z,22.50
2022-07-30T09:22:01.249Z,22.60
2022-07-30T09:24:47.237Z,22.60
2022-07-30T09:27:47.991Z,22.70
2022-07-30T09:30:51.515Z,22.80
2022-07-30T09:33:45.059Z,22.90
2022-07-30T09:36:36.165Z,23.00
2022-07-30T09:39:35.397Z,23.00
2022-07-30T09:42:23.011Z,23.10
2022-07-30T09:44:56.171Z,23.20
2022-07-30T09:47:36.858Z,23.20
2022-07-30T09:50:12.944Z,23.30
2022-07-30T09:52:50.669Z,23.30
2022-07-30T09:55:35.100Z,23.30
2022-07-30T09:58:08.648Z,23.30
2022-07-30T10:00:42.401Z,23.40
2022-07-30T10:03:33.956Z,23.40
2022-07-30T10:06:42.046Z,23.60
2022-07-30T10:09:29.073Z,23.70
2022-07-30T10:12:01.014Z,23.90
2022-07-30T10:14:42.586Z,23.90
2022-07-30T10:17:18.027Z,24.10
2022-07-30T10:19:59.603Z,24.10
2022-07-30T10:22:54.886Z,24.20
2022-07-30T10:25:55.140Z,24.10
2022-07-30T10:28:45.385Z,24.10
2022-07-30T10:31:48.145Z,24.20
2022-07-30T10:34:07.494Z,24.20
2022-07-30T10:36:39.246Z,24.40
2022-07-30T10:39:15.896Z,24.60
2022-07-30T10:41:54.919Z,24.80
2022-07-30T10:44:54.091Z,24.60
2022-07-30T10:47:34.476Z,24.70
2022-07-30T10:50:12.552Z,25.00
2022-07-30T10:52:54.496Z,25.10
2022-07-30T10:55:36.447Z,25.20
2022-07-30T10:58:10.365Z,25.20
2022-07-30T11:01:03.429Z,25.20
2022-07-30T11:03:40.750Z,25.20
2022-07-30T11:06:31.126Z,25.20
2022-07-30T11:09:01.588Z,25.40
2022-07-30T11:12:02.038Z,25.50
2022-07-30T11:15:06.489Z,25.70
2022-07-30T11:18:04.298Z,25.80
2022-07-30T11:20:36.011Z,25.70
2022-07-30T11:23:27.741Z,25.70
2022-07-30T11:25:58.288Z,25.80
2022-07-30T11:28:43.086Z,25.80
2022-07-30T11:31:55.573Z,26.00
2022-07-30T11:34:31.030Z,26.00
2022-07-30T11:37:22.154Z,26.00
2022-07-30T11:40:15.982Z,26.20
2022-07-30T11:43:35.108Z,26.20
2022-07-30T11:46:16.585Z,26.30
2022-07-30T11:48:59.253Z,26.30
2022-07-30T11:51:32.837Z,26.40
2022-07-30T11:54:08.743Z,26.50
2022-07-30T11:56:39.476Z,26.40
2022-07-30T11:59:11.378Z,26.40
2022-07-30T12:01:44.666Z,26.30
2022-07-30T12:04:15.041Z,26.30
2022-07-30T12:06:49.361Z,26.20
2022-07-30T12:09:29.061Z,26.30
2022-07-30T12:12:00.878Z,26.40
2022-07-30T12:14:42.240Z,26.60
2022-07-30T12:17:15.677Z,26.60
2022-07-30T12:19:49.489Z,26.80
2022-07-30T12:22:19.985Z,26.90
2022-07-30T12:24:50.469Z,27.00
2022-07-30T12:27:21.900Z,26.90
2022-07-30T12:29:52.423Z,27.00
2022-07-30T12:32:25.461Z,27.00
2022-07-30T12:34:59.066Z,26.90
2022-07-30T12:37:29.496Z,27.10
2022-07-30T12:40:15.107Z,27.40
2022-07-30T12:42:53.679Z,27.50
2022-07-30T12:45:51.729Z,27.40
2022-07-30T12:48:25.336Z,27.40
2022-07-30T12:51:08.116Z,27.30
2022-07-30T12:53:38.471Z,27.30
2022-07-30T12:56:14.786Z,27.30
2022-07-30T12:58:45.813Z,27.20
2022-07-30T13:01:16.897Z,27.10
2022-07-30T13:03:50.196Z,27.20
2022-07-30T13:06:23.735Z,27.30
2022-07-30T13:08:56.714Z,27.20
2022-07-30T13:11:28.843Z,27.30
2022-07-30T13:13:59.138Z,27.40
2022-07-30T13:16:35.096Z,27.40
2022-07-30T13:19:11.524Z,27.40
2022-07-30T13:21:49.519Z,27.30
2022-07-30T13:24:23.898Z,27.20
2022-07-30T13:26:54.278Z,27.30
2022-07-30T13:29:24.606Z,27.40
2022-07-30T13:31:55.051Z,27.30
2022-07-30T13:34:28.531Z,27.30
2022-07-30T13:36:59.207Z,27.20
2022-07-30T13:39:30.073Z,27.20
2022-07-30T13:42:00.638Z,27.20
2022-07-30T13:44:31.687Z,27.20
2022-07-30T13:47:02.283Z,27.20
2022-07-30T13:49:35.642Z,27.20
2022-07-30T13:52:06.477Z,27.10
2022-07-30T13:54:36.933Z,27.00
2022-07-30T13:57:07.979Z,27.10
2022-07-30T13:59:38.360Z,27.20
2022-07-30T14:02:09.095Z,27.20
2022-07-30T14:04:42.054Z,27.40
2022-07-30T14:07:12.497Z,27.30
2022-07-30T14:09:44.617Z,27.40
2022-07-30T14:12:16.267Z,27.50
2022-07-30T14:14:47.044Z,27.60
2022-07-30T14:17:17.457Z,27.50
2022-07-30T14:19:51.483Z,27.60
2022-07-30T14:22:21.870Z,27.70
2022-07-30T14:24:52.252Z,27.80
2022-07-30T14:27:22.824Z,28.00
2022-07-30T14:29:53.393Z,28.00
2022-07-30T14:32:23.969Z,27.90
2022-07-30T14:34:57.324Z,27.90
2022-07-30T14:37:29.130Z,28.00
2022-07-30T14:39:59.546Z,28.00
2022-07-30T14:42:30.134Z,27.80
2022-07-30T14:45:00.669Z,27.80
2022-07-30T14:47:31.104Z,27.80
2022-07-30T14:50:04.303Z,27.80
2022-07-30T14:52:35.521Z,27.80
2022-07-30T14:55:06.724Z,27.70
2022-07-30T14:57:37.541Z,27.70
2022-07-30T15:00:11.479Z,27.70
2022-07-30T15:02:42.433Z,27.70
2022-07-30T15:05:15.462Z,27.70
2022-07-30T15:07:45.744Z,27.70
2022-07-30T15:10:16.080Z,27.70
2022-07-30T15:12:46.533Z,27.70
2022-07-30T15:15:18.822Z,27.70
2022-07-30T15:17:52.317Z,27.80
2022-07-30T15:20:25.323Z,27.80
2022-07-30T15:22:56.029Z,27.90
2022-07-30T15:25:26.894Z,27.80
2022-07-30T15:27:57.565Z,27.90
2022-07-30T15:30:28.256Z,27.80
2022-07-30T15:32:58.739Z,27.80
2022-07-30T15:35:32.026Z,27.80
2022-07-30T15:38:02.686Z,27.80
2022-07-30T15:40:33.287Z,27.80
2022-07-30T15:43:05.042Z,27.80
2022-07-30T15:45:51.096Z,27.80
2022-07-30T15:48:27.290Z,27.90
2022-07-30T15:51:04.868Z,27.90
2022-07-30T15:53:35.996Z,27.90
2022-07-30T15:56:06.707Z,27.90
2022-07-30T15:58:41.617Z,27.90
2022-07-30T16:01:13.784Z,27.90
2022-07-30T16:03:44.443Z,27.90
2022-07-30T16:06:17.489Z,27.90
2022-07-30T16:08:48.006Z,27.90
2022-07-30T16:11:18.800Z,28.00
2022-07-30T16:13:49.807Z,28.00
2022-07-30T16:16:20.144Z,28.00
2022-07-30T16:18:50.505Z,27.90
2022-07-30T16:21:23.710Z,27.80
2022-07-30T16:23:55.364Z,27.80
2022-07-30T16:26:25.770Z,27.80
2022-07-30T16:28:56.166Z,27.80
2022-07-30T16:31:26.930Z,27.80
2022-07-30T16:33:57.419Z,27.80
2022-07-30T16:36:30.716Z,27.80
2022-07-30T16:39:01.441Z,27.90
2022-07-30T16:41:32.016Z,28.00
2022-07-30T16:44:02.367Z,28.10
2022-07-30T16:46:32.703Z,28.10
2022-07-30T16:49:03.142Z,28.10
2022-07-30T16:51:36.231Z,28.20
2022-07-30T16:54:07.800Z,28.30
2022-07-30T16:56:38.608Z,28.30
2022-07-30T16:59:14.854Z,28.30
2022-07-30T17:01:45.353Z,28.40
2022-07-30T17:04:16.188Z,28.60
2022-07-30T17:06:51.670Z,28.60
2022-07-30T17:09:22.036Z,28.50
2022-07-30T17:11:52.592Z,28.40
2022-07-30T17:14:23.903Z,28.30
2022-07-30T17:16:54.345Z,28.30
2022-07-30T17:19:24.838Z,28.20
2022-07-30T17:21:57.798Z,28.20
2022-07-30T17:24:28.169Z,28.20
2022-07-30T17:27:01.644Z,28.10
2022-07-30T17:29:32.544Z,28.10
2022-07-30T17:32:03.344Z,28.10
2022-07-30T17:34:34.040Z,28.10
2022-07-30T17:37:07.568Z,28.10
2022-07-30T17:40:27.022Z,28.20
2022-07-30T17:42:28.484Z,28.30
2022-07-30T17:44:59.654Z,28.60
2022-07-30T17:47:30.228Z,28.80
2022-07-30T17:50:00.661Z,28.80
2022-07-30T17:52:33.810Z,28.90
2022-07-30T17:55:04.328Z,29.00
2022-07-30T17:57:34.674Z,29.20
2022-07-30T18:00:06.989Z,29.40
2022-07-30T18:02:37.612Z,29.50
2022-07-30T18:05:10.748Z,29.70
2022-07-30T18:07:43.763Z,29.80
2022-07-30T18:10:14.833Z,29.90
2022-07-30T18:12:48.349Z,29.90
2022-07-30T18:15:19.264Z,29.60
2022-07-30T18:17:49.895Z,29.40
2022-07-30T18:20:20.369Z,29.20
2022-07-30T18:22:53.570Z,29.10
2022-07-30T18:25:23.994Z,28.90
2022-07-30T18:27:56.119Z,28.80
2022-07-30T18:30:26.549Z,28.70
2022-07-30T18:32:56.838Z,28.60
2022-07-30T18:35:27.236Z,28.50
2022-07-30T18:38:00.194Z,28.40
2022-07-30T18:40:30.748Z,28.30
2022-07-30T18:43:01.323Z,28.30
2022-07-30T18:45:36.615Z,28.20
2022-07-30T18:48:09.831Z,28.10
2022-07-30T18:50:40.354Z,28.10
2022-07-30T18:53:15.433Z,28.00
2022-07-30T18:55:47.186Z,28.00
2022-07-30T18:58:17.423Z,27.90
2022-07-30T19:00:48.294Z,27.80
2022-07-30T19:03:22.848Z,27.80
2022-07-30T19:05:53.833Z,27.80
2022-07-30T19:08:27.789Z,27.70
2022-07-30T19:10:58.279Z,27.70
2022-07-30T19:13:28.590Z,27.60
2022-07-30T19:15:58.994Z,27.60
2022-07-30T19:18:29.479Z,27.50
2022-07-30T19:20:59.891Z,27.50
2022-07-30T19:23:32.824Z,27.50
2022-07-30T19:26:03.161Z,27.40
2022-07-30T19:28:33.433Z,27.30
2022-07-30T19:31:03.749Z,27.20
2022-07-30T19:33:34.089Z,27.20
2022-07-30T19:36:04.671Z,27.20
2022-07-30T19:38:40.073Z,27.10
2022-07-30T19:41:10.736Z,27.00
2022-07-30T19:43:42.265Z,27.00
2022-07-30T19:46:12.736Z,27.00
2022-07-30T19:48:46.261Z,26.90
2022-07-30T19:51:21.298Z,26.80
2022-07-30T19:53:58.711Z,26.80
2022-07-30T19:56:29.029Z,26.70
2022-07-30T19:59:00.394Z,26.70
2022-07-30T20:01:51.721Z,26.60
2022-07-30T20:04:22.438Z,26.60
2022-07-30T20:06:53.110Z,26.60
2022-07-30T20:09:26.088Z,26.60
2022-07-30T20:11:59.865Z,26.50
2022-07-30T20:14:33.196Z,26.50
2022-07-30T20:17:04.017Z,26.50
2022-07-30T20:19:36.096Z,26.50
2022-07-30T20:22:08.192Z,26.40
2022-07-30T20:24:41.285Z,26.40
2022-07-30T20:27:36.366Z,26.40
2022-07-30T20:30:02.012Z,26.40
2022-07-30T20:32:32.505Z,26.50
2022-07-30T20:35:02.854Z,26.30
2022-07-30T20:37:33.680Z,26.30
2022-07-30T20:40:27.433Z,26.30
2022-07-30T20:42:59.948Z,26.30
2022-07-30T20:45:37.832Z,26.30
2022-07-30T20:48:17.244Z,26.30
2022-07-30T20:50:56.087Z,26.30
2022-07-30T20:53:33.724Z,26.30
2022-07-30T20:56:10.100Z,26.20
2022-07-30T20:58:41.061Z,26.20
2022-07-30T21:01:17.219Z,26.20
2022-07-30T21:03:48.880Z,26.20
2022-07-30T21:06:19.644Z,26.10
2022-07-30T21:08:50.000Z,26.10
2022-07-30T21:11:23.845Z,26.10
2022-07-30T21:13:54.976Z,26.10
2022-07-30T21:16:27.380Z,26.10
2022-07-30T21:19:03.603Z,26.00
2022-07-30T21:21:41.757Z,26.00
2022-07-30T21:24:19.645Z,26.00
2022-07-30T21:26:54.105Z,26.00
2022-07-30T21:29:26.176Z,25.90
2022-07-30T21:32:02.227Z,25.90
2022-07-30T21:34:41.959Z,25.90
2022-07-30T21:37:15.805Z,25.90
2022-07-30T21:39:46.362Z,25.80
2022-07-30T21:42:26.092Z,25.80
2022-07-30T21:45:00.983Z,25.70
2022-07-30T21:47:31.420Z,25.70
2022-07-30T21:50:03.023Z,25.70
2022-07-30T21:52:33.482Z,25.70
2022-07-30T21:55:04.649Z,25.60
2022-07-30T21:57:37.674Z,25.60
2022-07-30T22:00:14.717Z,25.60
2022-07-30T22:02:52.918Z,25.50
2022-07-30T22:05:38.464Z,25.50
2022-07-30T22:08:10.507Z,25.50
2022-07-30T22:10:42.300Z,25.50
2022-07-30T22:13:19.526Z,25.50
2022-07-30T22:15:52.832Z,25.40
2022-07-30T22:18:24.675Z,25.40
2022-07-30T22:20:56.531Z,25.40
2022-07-30T22:23:28.002Z,25.30
2022-07-30T22:28:52.690Z,25.30
2022-07-30T22:31:24.865Z,25.20
2022-07-30T22:34:01.266Z,25.20
2022-07-30T22:36:31.886Z,25.20
2022-07-30T22:39:03.030Z,25.20
2022-07-30T22:41:39.439Z,25.10
2022-07-30T22:44:13.199Z,25.10
2022-07-30T22:46:43.730Z,25.10
2022-07-30T22:49:24.184Z,25.10
2022-07-30T22:52:19.872Z,25.10
2022-07-30T22:54:52.687Z,25.00
2022-07-30T22:57:23.434Z,25.10
2022-07-30T22:59:57.996Z,25.00
2022-07-30T23:02:31.027Z,25.00
2022-07-30T23:05:03.150Z,25.00
2022-07-30T23:07:38.825Z,25.00
2022-07-30T23:10:17.250Z,24.90
2022-07-30T23:12:28.741Z,25.30
2022-07-30T23:12:51.890Z,24.90
2022-07-30T23:15:25.353Z,24.90
2022-07-30T23:17:56.146Z,24.90
2022-07-30T23:20:26.528Z,24.90
2022-07-30T23:22:56.768Z,24.90
2022-07-30T23:25:34.553Z,24.80
2022-07-30T23:28:09.719Z,24.80
2022-07-30T23:30:42.751Z,24.80
2022-07-30T23:33:13.234Z,24.80
2022-07-30T23:35:43.761Z,24.70
2022-07-30T23:38:14.134Z,24.70
2022-07-30T23:40:44.996Z,24.70
2022-07-30T23:43:15.740Z,24.60
2022-07-30T23:45:49.028Z,24.60
2022-07-30T23:48:19.371Z,24.60
2022-07-30T23:50:49.663Z,24.70
2022-07-30T23:53:20.279Z,24.60
2022-07-30T23:55:52.611Z,24.60
2022-07-30T23:58:23.180Z,24.60
